LUA Airport (Luray Caverns) Information

FAA: LUA - ICAO: KLUA

LUA Airport Location

State Virginia
County Page
City Luray
LUA Airport is 2 miles west of Luray, VA.
Latitude 38-40-00.1577N
Longitude 078-30-03.0061W
Elevation 902ft

KLUA Airport METARs

METAR KLUA 181315Z AUTO 24004KT 10SM BKN038 00/M07 A3000 RMK AO2
Altimeter 30.00"
Temperature 0.0°C (32.0°F)
Wind 240° at 4KT
Clouds broken at 3,800ft
Visibility 10.0mi
Time observed: 2022-01-18T13:15:00Z

LUA Airport Details

Status Operational
Activation July 1971
Ownership Public
Usage Public
Chart WASHINGTON
ATC on-site No
Beacon schedule sunset-sunrise
Beacon color clear green

LUA Airport Contacts

Owner LURAY & PAGE CO. AIRPORT AUTHORITY
Owner address 270 CIRCLE VIEW ROAD, LURAY, VA 22835
Owner phone (540) 743-6070
Manager RICK CANTLEY
Manager address 113 MAIN ST, HURT, VA 24563
Manager phone 434-324-7242

LUA Airport (Luray Caverns) Radio Frequencies

LUA (Airport) Radio Frequencies

UNICOM 122.8
Common traffic advisory frequency (CTAF) 122.8